Time;durP1;ratioP1;P1;durP2;ratioP2;P2;SDS_P1;SDS_P2;PMS_P1;PMS_P2;Temp;Humidity;BMP_temperature;BMP_pressure;BME280_temperature;BME280_humidity;BME280_pressure;Samples;Min_cycle;Max_cycle;Signal;HPM_P1;HPM_P2
2023/04/19 00:00:56;;;;;;;9.07;7.17;;;;;;;;;;5011857;28;20179;-76
2023/04/19 00:03:23;;;;;;;9.57;7.03;;;;;;;;;;5010341;28;20193;-75
2023/04/19 00:05:49;;;;;;;7.60;6.73;;;;;;;;;;4994398;28;20678;-75
2023/04/19 00:08:15;;;;;;;7.53;6.73;;;;;;;;;;4992202;28;20180;-75
2023/04/19 00:10:41;;;;;;;7.80;7.00;;;;;;;;;;4992131;28;20179;-76
2023/04/19 00:13:07;;;;;;;7.77;6.97;;;;;;;;;;4991778;28;20183;-75
2023/04/19 00:15:34;;;;;;;9.70;7.70;;;;;;;;;;5006085;28;20276;-75
2023/04/19 00:18:00;;;;;;;7.90;7.07;;;;;;;;;;5011408;28;20198;-75
2023/04/19 00:20:26;;;;;;;7.90;7.03;;;;;;;;;;5011710;28;20202;-75
2023/04/19 00:22:52;;;;;;;10.23;7.20;;;;;;;;;;5011243;28;20229;-75
2023/04/19 00:25:18;;;;;;;7.80;6.70;;;;;;;;;;5010609;28;20697;-75
2023/04/19 00:27:44;;;;;;;7.27;6.53;;;;;;;;;;5011366;28;20214;-76
2023/04/19 00:30:11;;;;;;;7.80;6.80;;;;;;;;;;5010186;28;20179;-76
2023/04/19 00:32:37;;;;;;;9.83;6.40;;;;;;;;;;5010972;28;20179;-76
2023/04/19 00:35:03;;;;;;;7.30;6.20;;;;;;;;;;5003932;28;20713;-75
2023/04/19 00:37:31;;;;;;;9.37;6.93;;;;;;;;;;5000428;28;20181;-76
2023/04/19 00:39:57;;;;;;;8.03;6.70;;;;;;;;;;4998581;28;20269;-75
2023/04/19 00:42:23;;;;;;;8.03;6.27;;;;;;;;;;4991097;28;20564;-75
2023/04/19 00:44:49;;;;;;;10.17;6.80;;;;;;;;;;4962297;28;20199;-75
2023/04/19 00:47:15;;;;;;;8.17;6.87;;;;;;;;;;4999804;28;20214;-75
2023/04/19 00:49:42;;;;;;;8.23;6.70;;;;;;;;;;5009697;28;20183;-75
2023/04/19 00:52:09;;;;;;;8.23;7.30;;;;;;;;;;5009699;28;20215;-75
2023/04/19 00:54:37;;;;;;;8.13;7.00;;;;;;;;;;5010032;28;20207;-75
2023/04/19 00:57:03;;;;;;;7.93;7.10;;;;;;;;;;5010373;28;20183;-75
2023/04/19 00:59:30;;;;;;;6.80;5.87;;;;;;;;;;5009790;28;20207;-75
2023/04/19 01:01:56;;;;;;;8.10;6.67;;;;;;;;;;5009845;28;20182;-75
2023/04/19 01:04:23;;;;;;;7.10;6.27;;;;;;;;;;5010040;28;20195;-75
2023/04/19 01:06:50;;;;;;;8.43;6.97;;;;;;;;;;5012436;28;20202;-75
2023/04/19 01:09:16;;;;;;;9.63;6.50;;;;;;;;;;5003380;28;20611;-75
2023/04/19 01:11:42;;;;;;;8.57;7.10;;;;;;;;;;5013722;28;20187;-75
2023/04/19 01:14:08;;;;;;;8.23;6.67;;;;;;;;;;5012760;28;20191;-75
2023/04/19 01:16:35;;;;;;;7.47;6.20;;;;;;;;;;5014927;28;20186;-75
2023/04/19 01:19:01;;;;;;;7.00;6.20;;;;;;;;;;5014975;28;20298;-75
2023/04/19 01:21:29;;;;;;;7.43;6.60;;;;;;;;;;5013634;28;20702;-75
2023/04/19 01:23:55;;;;;;;7.80;6.33;;;;;;;;;;5013155;28;20175;-75
2023/04/19 01:26:21;;;;;;;7.50;6.17;;;;;;;;;;5013688;28;20336;-75
2023/04/19 01:28:48;;;;;;;8.33;6.70;;;;;;;;;;5013605;28;20187;-75
2023/04/19 01:31:15;;;;;;;6.20;5.60;;;;;;;;;;5012692;28;20190;-75
2023/04/19 01:33:41;;;;;;;8.13;6.63;;;;;;;;;;5014249;28;20597;-75
2023/04/19 01:36:08;;;;;;;9.03;6.70;;;;;;;;;;5014125;28;20249;-75
2023/04/19 01:38:35;;;;;;;7.40;5.97;;;;;;;;;;4980851;28;20215;-75
2023/04/19 01:41:01;;;;;;;9.10;6.43;;;;;;;;;;5014515;28;20168;-75
2023/04/19 01:43:27;;;;;;;6.97;5.93;;;;;;;;;;5014221;28;20254;-75
2023/04/19 01:45:53;;;;;;;7.73;6.93;;;;;;;;;;5010015;28;20710;-75
2023/04/19 01:48:19;;;;;;;8.73;7.20;;;;;;;;;;5008477;28;20559;-75
2023/04/19 01:50:45;;;;;;;8.60;6.80;;;;;;;;;;5014322;28;20651;-75
2023/04/19 01:53:11;;;;;;;8.00;6.53;;;;;;;;;;4995074;28;20629;-75
2023/04/19 01:55:38;;;;;;;8.83;6.40;;;;;;;;;;5006434;28;20203;-75
2023/04/19 01:58:04;;;;;;;7.40;6.60;;;;;;;;;;5012698;28;20297;-75
2023/04/19 02:00:30;;;;;;;8.97;6.30;;;;;;;;;;5012294;28;20226;-75
2023/04/19 02:02:56;;;;;;;7.10;6.40;;;;;;;;;;5008419;28;20271;-75
2023/04/19 02:05:22;;;;;;;6.67;5.83;;;;;;;;;;4994787;28;20234;-75
2023/04/19 02:07:48;;;;;;;7.83;6.10;;;;;;;;;;5008530;28;20584;-75
2023/04/19 02:10:14;;;;;;;7.83;6.40;;;;;;;;;;4996507;28;20613;-75
2023/04/19 02:12:41;;;;;;;9.73;7.57;;;;;;;;;;5011078;28;20183;-75
2023/04/19 02:15:08;;;;;;;7.80;6.70;;;;;;;;;;5001391;28;20231;-75
2023/04/19 02:17:35;;;;;;;8.47;6.23;;;;;;;;;;5013879;28;20187;-75
2023/04/19 02:20:01;;;;;;;6.57;5.77;;;;;;;;;;5012528;28;20219;-75
2023/04/19 02:22:27;;;;;;;7.10;5.97;;;;;;;;;;5012352;28;20773;-75
2023/04/19 02:24:53;;;;;;;9.70;6.20;;;;;;;;;;5011999;28;20681;-75
2023/04/19 02:27:25;;;;;;;7.00;6.30;;;;;;;;;;5012467;28;20215;-75
2023/04/19 02:29:51;;;;;;;8.40;6.30;;;;;;;;;;5013251;28;20784;-75
2023/04/19 02:32:17;;;;;;;8.83;6.67;;;;;;;;;;5013045;28;20175;-75
2023/04/19 02:34:43;;;;;;;7.80;6.47;;;;;;;;;;4989920;28;20223;-75
2023/04/19 02:37:09;;;;;;;7.67;6.33;;;;;;;;;;5011995;28;20589;-75
2023/04/19 02:39:36;;;;;;;9.67;6.10;;;;;;;;;;5011270;28;20277;-75
2023/04/19 02:42:02;;;;;;;7.70;6.90;;;;;;;;;;4998305;28;20211;-74
2023/04/19 02:44:28;;;;;;;8.97;6.30;;;;;;;;;;4998119;28;20230;-75
2023/04/19 02:46:56;;;;;;;7.03;6.20;;;;;;;;;;5002850;28;20191;-75
2023/04/19 02:49:22;;;;;;;7.13;6.17;;;;;;;;;;5008911;28;20202;-75
2023/04/19 02:51:50;;;;;;;8.63;6.70;;;;;;;;;;5011845;28;20175;-75
2023/04/19 02:54:16;;;;;;;7.17;6.30;;;;;;;;;;5002188;28;20207;-75
2023/04/19 02:56:44;;;;;;;7.20;6.50;;;;;;;;;;4978430;28;20184;-75
2023/04/19 02:59:10;;;;;;;9.17;6.40;;;;;;;;;;5008740;28;20712;-75
2023/04/19 03:01:36;;;;;;;7.83;6.50;;;;;;;;;;5000681;28;20184;-75
2023/04/19 03:04:05;;;;;;;8.33;6.43;;;;;;;;;;4993886;28;20679;-75
2023/04/19 03:06:31;;;;;;;6.70;5.83;;;;;;;;;;5010231;28;20183;-75
2023/04/19 03:08:57;;;;;;;8.87;6.90;;;;;;;;;;5012861;28;20183;-75
2023/04/19 03:11:24;;;;;;;8.20;6.90;;;;;;;;;;5011502;28;20195;-75
2023/04/19 03:13:50;;;;;;;8.00;6.70;;;;;;;;;;5012461;28;20183;-75
2023/04/19 03:16:16;;;;;;;8.77;6.73;;;;;;;;;;5007440;28;20191;-75
2023/04/19 03:18:43;;;;;;;9.53;6.70;;;;;;;;;;5011510;28;20581;-75
2023/04/19 03:21:09;;;;;;;8.07;7.20;;;;;;;;;;4995359;28;20278;-75
2023/04/19 03:23:45;;;;;;;7.70;6.90;;;;;;;;;;5011239;28;20249;-75
2023/04/19 03:26:13;;;;;;;8.67;7.00;;;;;;;;;;5009872;28;20185;-75
2023/04/19 03:28:45;;;;;;;8.03;6.93;;;;;;;;;;5011113;28;20670;-75
2023/04/19 03:31:22;;;;;;;8.40;7.23;;;;;;;;;;5011402;28;20270;-75
2023/04/19 03:33:50;;;;;;;9.60;7.83;;;;;;;;;;5012078;28;20241;-75
2023/04/19 03:36:18;;;;;;;8.93;7.40;;;;;;;;;;5006247;28;20720;-75
2023/04/19 03:38:46;;;;;;;7.93;6.90;;;;;;;;;;5003473;28;20211;-75
2023/04/19 03:41:20;;;;;;;7.90;7.10;;;;;;;;;;5011271;28;20175;-75
2023/04/19 03:43:48;;;;;;;10.83;7.53;;;;;;;;;;5010853;28;20274;-75
2023/04/19 03:46:14;;;;;;;8.53;6.80;;;;;;;;;;5011919;28;20178;-75
2023/04/19 03:48:41;;;;;;;11.50;7.67;;;;;;;;;;5011321;28;20180;-75
2023/04/19 03:51:07;;;;;;;8.10;6.80;;;;;;;;;;5011382;28;20191;-75
2023/04/19 03:53:33;;;;;;;9.33;7.23;;;;;;;;;;5010841;28;20534;-75
2023/04/19 03:55:59;;;;;;;8.73;7.20;;;;;;;;;;5005558;28;20218;-75
2023/04/19 03:58:26;;;;;;;8.17;6.80;;;;;;;;;;5010669;28;20211;-75
2023/04/19 04:00:58;;;;;;;8.80;7.47;;;;;;;;;;5011222;28;20179;-75
2023/04/19 04:03:25;;;;;;;9.27;7.03;;;;;;;;;;5012035;28;20163;-75
2023/04/19 04:05:52;;;;;;;9.73;8.07;;;;;;;;;;4991002;28;20199;-75
2023/04/19 04:08:18;;;;;;;11.20;8.07;;;;;;;;;;5008949;28;20183;-75
2023/04/19 04:10:45;;;;;;;10.07;7.57;;;;;;;;;;4994657;28;20219;-75
2023/04/19 04:13:11;;;;;;;8.37;7.17;;;;;;;;;;5011723;28;20607;-75
2023/04/19 04:15:47;;;;;;;9.30;7.77;;;;;;;;;;5009650;28;20801;-75
2023/04/19 04:18:15;;;;;;;9.37;7.77;;;;;;;;;;4999731;28;20222;-75
2023/04/19 04:20:42;;;;;;;10.03;8.07;;;;;;;;;;4990839;28;20206;-75
2023/04/19 04:23:10;;;;;;;9.43;7.63;;;;;;;;;;4990800;28;20183;-75
2023/04/19 04:25:39;;;;;;;8.67;7.70;;;;;;;;;;4974754;28;20191;-75
2023/04/19 04:28:10;;;;;;;11.00;7.57;;;;;;;;;;5006218;28;20206;-75
2023/04/19 04:30:39;;;;;;;9.43;8.23;;;;;;;;;;5010616;28;20576;-75
2023/04/19 04:33:10;;;;;;;9.60;7.70;;;;;;;;;;5010560;28;20273;-75
2023/04/19 04:35:38;;;;;;;12.27;8.03;;;;;;;;;;5009756;28;20222;-75
2023/04/19 04:38:09;;;;;;;9.23;7.67;;;;;;;;;;5010288;28;20266;-75
2023/04/19 04:40:37;;;;;;;11.60;8.10;;;;;;;;;;5010476;28;20183;-75
2023/04/19 04:43:03;;;;;;;11.33;8.63;;;;;;;;;;5010128;28;20179;-75
2023/04/19 04:45:30;;;;;;;10.30;7.97;;;;;;;;;;5006620;28;20191;-75
2023/04/19 04:47:57;;;;;;;10.37;8.20;;;;;;;;;;4993976;28;20183;-75
2023/04/19 04:50:23;;;;;;;11.17;8.30;;;;;;;;;;5010523;28;20186;-75
2023/04/19 04:52:50;;;;;;;10.13;8.27;;;;;;;;;;5009839;28;20213;-75
2023/04/19 04:55:21;;;;;;;10.03;8.53;;;;;;;;;;5009506;28;20238;-75
2023/04/19 04:57:47;;;;;;;9.73;8.33;;;;;;;;;;5010217;28;20187;-75
2023/04/19 05:00:23;;;;;;;10.87;8.70;;;;;;;;;;5010278;28;20230;-75
2023/04/19 05:02:57;;;;;;;10.47;8.63;;;;;;;;;;5003464;28;20663;-75
2023/04/19 05:05:24;;;;;;;9.97;8.30;;;;;;;;;;5008437;28;20199;-75
2023/04/19 05:07:50;;;;;;;10.10;7.63;;;;;;;;;;5007577;28;20602;-75
2023/04/19 05:10:16;;;;;;;10.43;8.57;;;;;;;;;;5007189;28;20631;-75
2023/04/19 05:12:44;;;;;;;10.63;8.93;;;;;;;;;;4993590;28;20840;-75
2023/04/19 05:15:11;;;;;;;10.20;7.70;;;;;;;;;;5006105;28;20273;-75
2023/04/19 05:17:41;;;;;;;9.37;7.97;;;;;;;;;;4986853;28;20222;-75
2023/04/19 05:20:07;;;;;;;9.33;7.97;;;;;;;;;;4993157;28;20694;-76
2023/04/19 05:22:34;;;;;;;8.70;7.43;;;;;;;;;;4992963;28;20180;-75
2023/04/19 05:25:01;;;;;;;8.90;7.50;;;;;;;;;;4987788;28;20208;-74
2023/04/19 05:27:28;;;;;;;10.80;8.40;;;;;;;;;;5001965;28;20187;-74
2023/04/19 05:29:54;;;;;;;9.13;7.83;;;;;;;;;;4992731;28;20260;-74
2023/04/19 05:32:21;;;;;;;9.20;7.97;;;;;;;;;;5007637;28;20187;-74
2023/04/19 05:34:54;;;;;;;9.73;8.13;;;;;;;;;;5006613;28;20226;-74
2023/04/19 05:37:23;;;;;;;10.37;7.87;;;;;;;;;;5008554;28;20233;-79
2023/04/19 05:39:49;;;;;;;9.13;7.70;;;;;;;;;;5012211;28;20214;-76
2023/04/19 05:42:17;;;;;;;9.43;7.80;;;;;;;;;;4993715;28;20291;-74
2023/04/19 05:44:43;;;;;;;9.17;7.13;;;;;;;;;;5006181;28;20235;-75
2023/04/19 05:47:10;;;;;;;10.17;7.80;;;;;;;;;;5001616;28;20590;-75
2023/04/19 05:49:55;;;;;;;8.67;7.77;;;;;;;;;;4990739;28;20639;-75
2023/04/19 05:52:29;;;;;;;9.87;7.20;;;;;;;;;;5007134;28;20202;-75
2023/04/19 05:54:58;;;;;;;9.83;8.53;;;;;;;;;;4978602;28;20579;-75
2023/04/19 05:57:25;;;;;;;12.17;8.47;;;;;;;;;;4993977;28;20679;-75
2023/04/19 05:59:51;;;;;;;10.63;7.97;;;;;;;;;;4996504;28;20219;-75
2023/04/19 06:02:21;;;;;;;11.57;8.63;;;;;;;;;;4997529;28;20208;-75
2023/04/19 06:04:48;;;;;;;9.53;7.83;;;;;;;;;;5000891;28;20204;-75
2023/04/19 06:07:14;;;;;;;8.80;7.90;;;;;;;;;;4997036;28;20548;-75
2023/04/19 06:09:40;;;;;;;8.47;7.33;;;;;;;;;;5012291;28;20281;-75
2023/04/19 06:12:07;;;;;;;9.10;8.13;;;;;;;;;;4999035;28;20188;-75
2023/04/19 06:14:33;;;;;;;9.37;7.50;;;;;;;;;;4995461;28;20730;-75
2023/04/19 06:17:00;;;;;;;10.23;7.83;;;;;;;;;;4996453;28;20192;-75
2023/04/19 06:19:26;;;;;;;8.70;7.50;;;;;;;;;;5001819;28;20579;-75
2023/04/19 06:21:52;;;;;;;9.43;7.77;;;;;;;;;;4997002;28;20282;-75
2023/04/19 06:24:18;;;;;;;9.27;7.73;;;;;;;;;;5003246;28;20215;-75
2023/04/19 06:26:46;;;;;;;9.77;7.80;;;;;;;;;;4993456;28;20167;-75
2023/04/19 06:29:12;;;;;;;10.67;8.13;;;;;;;;;;5008829;28;20262;-75
2023/04/19 06:31:38;;;;;;;9.10;7.27;;;;;;;;;;5013958;28;20183;-75
2023/04/19 06:34:04;;;;;;;8.83;7.60;;;;;;;;;;5013108;28;20191;-75
2023/04/19 06:36:32;;;;;;;9.97;8.37;;;;;;;;;;5012308;28;20561;-75
2023/04/19 06:38:58;;;;;;;10.47;8.20;;;;;;;;;;5012635;28;20210;-75
2023/04/19 06:41:24;;;;;;;8.60;7.70;;;;;;;;;;5013685;28;20181;-75
2023/04/19 06:43:50;;;;;;;9.43;7.73;;;;;;;;;;4995887;28;20664;-75
2023/04/19 06:46:17;;;;;;;9.37;7.50;;;;;;;;;;5011602;28;20306;-75
2023/04/19 06:48:43;;;;;;;10.60;7.50;;;;;;;;;;5012667;28;20186;-74
2023/04/19 06:51:09;;;;;;;10.60;7.90;;;;;;;;;;5013476;28;20210;-75
2023/04/19 06:53:35;;;;;;;9.53;7.43;;;;;;;;;;5011770;28;20556;-75
2023/04/19 06:56:05;;;;;;;8.33;7.40;;;;;;;;;;5012575;28;20674;-75
2023/04/19 06:58:32;;;;;;;8.57;7.50;;;;;;;;;;5011961;28;20206;-75
2023/04/19 07:01:00;;;;;;;9.00;7.47;;;;;;;;;;5011871;28;20183;-75
2023/04/19 07:03:26;;;;;;;7.87;7.07;;;;;;;;;;5009320;28;20237;-74
2023/04/19 07:05:54;;;;;;;8.30;7.50;;;;;;;;;;5011526;28;20203;-73
2023/04/19 07:08:21;;;;;;;9.73;7.03;;;;;;;;;;5009575;28;20282;-73
2023/04/19 07:10:47;;;;;;;11.73;6.87;;;;;;;;;;5012786;28;20194;-73
2023/04/19 07:13:13;;;;;;;7.63;6.83;;;;;;;;;;5012893;28;20207;-74
2023/04/19 07:15:39;;;;;;;9.00;7.50;;;;;;;;;;5012827;28;20278;-74
2023/04/19 07:18:05;;;;;;;8.50;7.50;;;;;;;;;;5011084;28;20194;-74
2023/04/19 07:20:31;;;;;;;8.40;7.20;;;;;;;;;;4993917;28;20264;-74
2023/04/19 07:22:58;;;;;;;7.93;7.00;;;;;;;;;;5012426;28;20697;-74
2023/04/19 07:25:24;;;;;;;8.73;6.80;;;;;;;;;;5012908;28;20195;-74
2023/04/19 07:27:53;;;;;;;7.63;6.83;;;;;;;;;;5009343;28;20175;-74
2023/04/19 07:30:19;;;;;;;7.53;6.60;;;;;;;;;;5009595;28;20183;-74
2023/04/19 07:32:45;;;;;;;9.40;7.20;;;;;;;;;;5012096;28;20183;-74
2023/04/19 07:35:11;;;;;;;7.93;7.13;;;;;;;;;;5012445;28;20223;-74
2023/04/19 07:37:37;;;;;;;9.10;7.30;;;;;;;;;;5011812;28;20190;-74
2023/04/19 07:40:04;;;;;;;10.80;8.27;;;;;;;;;;5007232;28;20203;-74
2023/04/19 07:42:30;;;;;;;9.30;8.37;;;;;;;;;;5010817;28;20236;-74
2023/04/19 07:44:58;;;;;;;10.23;7.53;;;;;;;;;;5012482;28;20192;-74
2023/04/19 07:47:24;;;;;;;8.70;7.77;;;;;;;;;;5011194;28;20183;-74
2023/04/19 07:49:55;;;;;;;10.83;7.90;;;;;;;;;;5010404;28;20267;-75
2023/04/19 07:52:21;;;;;;;8.73;6.90;;;;;;;;;;5011857;28;20266;-74
2023/04/19 07:54:47;;;;;;;9.70;7.47;;;;;;;;;;5011996;28;20704;-74
2023/04/19 07:57:13;;;;;;;8.07;7.27;;;;;;;;;;5012471;28;20179;-74
2023/04/19 07:59:40;;;;;;;9.83;7.87;;;;;;;;;;5011011;28;20213;-74
2023/04/19 08:02:06;;;;;;;8.77;7.87;;;;;;;;;;5010754;28;20210;-74
2023/04/19 08:04:32;;;;;;;9.00;8.10;;;;;;;;;;5012192;28;20286;-74
2023/04/19 08:06:59;;;;;;;10.83;7.97;;;;;;;;;;5012140;28;20267;-74
2023/04/19 08:09:25;;;;;;;9.40;8.10;;;;;;;;;;5009747;28;20595;-74
2023/04/19 08:11:52;;;;;;;9.13;8.13;;;;;;;;;;5011925;28;20497;-74
2023/04/19 08:14:18;;;;;;;9.33;8.00;;;;;;;;;;5011169;28;20278;-74
2023/04/19 08:16:44;;;;;;;9.40;8.13;;;;;;;;;;5011882;28;20233;-74
2023/04/19 08:19:10;;;;;;;9.07;7.60;;;;;;;;;;5010912;28;20215;-74
2023/04/19 08:21:36;;;;;;;7.83;7.03;;;;;;;;;;5011774;28;20183;-74
2023/04/19 08:24:02;;;;;;;9.83;8.00;;;;;;;;;;5011419;28;20618;-74
2023/04/19 08:26:29;;;;;;;9.03;7.93;;;;;;;;;;5011628;28;20546;-74
2023/04/19 08:28:55;;;;;;;10.53;8.80;;;;;;;;;;5010506;28;20509;-74
2023/04/19 08:31:21;;;;;;;9.53;8.53;;;;;;;;;;5011333;28;20183;-74
2023/04/19 08:33:47;;;;;;;8.17;7.37;;;;;;;;;;5009978;28;20195;-74
2023/04/19 08:36:13;;;;;;;9.37;8.47;;;;;;;;;;5011775;28;20182;-74
2023/04/19 08:38:40;;;;;;;9.50;7.67;;;;;;;;;;5010138;28;20214;-74
2023/04/19 08:41:06;;;;;;;8.93;8.00;;;;;;;;;;5011054;28;20186;-74
2023/04/19 08:43:35;;;;;;;9.97;8.97;;;;;;;;;;5010403;28;20601;-74
2023/04/19 08:46:03;;;;;;;9.77;8.77;;;;;;;;;;5011563;28;20218;-74
2023/04/19 08:48:29;;;;;;;11.97;9.33;;;;;;;;;;5010114;28;20240;-74
2023/04/19 08:50:57;;;;;;;10.50;9.40;;;;;;;;;;5011689;28;20183;-74
2023/04/19 08:53:24;;;;;;;10.37;9.27;;;;;;;;;;5004399;28;20225;-74
2023/04/19 08:55:53;;;;;;;11.00;8.83;;;;;;;;;;5011336;28;20289;-74
2023/04/19 08:58:19;;;;;;;9.23;8.33;;;;;;;;;;5011266;28;20553;-74
2023/04/19 09:00:45;;;;;;;10.43;9.30;;;;;;;;;;5004550;28;20175;-74
2023/04/19 09:03:11;;;;;;;10.77;9.23;;;;;;;;;;5007063;28;20234;-74
2023/04/19 09:05:37;;;;;;;11.47;8.90;;;;;;;;;;5011318;28;20231;-74
2023/04/19 09:08:23;;;;;;;9.47;8.50;;;;;;;;;;5011505;28;20682;-74
2023/04/19 09:10:59;;;;;;;9.00;8.07;;;;;;;;;;5011378;28;20217;-74
2023/04/19 09:13:26;;;;;;;10.70;8.97;;;;;;;;;;5007082;28;20262;-74
2023/04/19 09:15:53;;;;;;;9.40;8.20;;;;;;;;;;5011193;28;20195;-74
2023/04/19 09:18:19;;;;;;;8.30;7.33;;;;;;;;;;5011386;28;20215;-74
2023/04/19 09:20:46;;;;;;;9.03;8.13;;;;;;;;;;5010036;28;20194;-74
2023/04/19 09:23:13;;;;;;;9.40;8.40;;;;;;;;;;5006898;28;20187;-74
2023/04/19 09:25:40;;;;;;;9.57;8.60;;;;;;;;;;5011725;28;20203;-74
2023/04/19 09:28:12;;;;;;;11.07;9.47;;;;;;;;;;5014914;28;20244;-74
2023/04/19 09:30:39;;;;;;;11.20;9.37;;;;;;;;;;5014860;28;20265;-74
2023/04/19 09:33:06;;;;;;;10.17;8.60;;;;;;;;;;5013054;28;20765;-74
2023/04/19 09:35:47;;;;;;;10.83;9.27;;;;;;;;;;5014459;28;20206;-74
2023/04/19 09:38:13;;;;;;;11.87;9.53;;;;;;;;;;5014711;28;20221;-74
2023/04/19 09:40:39;;;;;;;10.17;9.10;;;;;;;;;;5011609;28;20184;-74
2023/04/19 09:43:06;;;;;;;11.00;9.00;;;;;;;;;;4996753;28;20258;-74
2023/04/19 09:45:41;;;;;;;10.27;9.00;;;;;;;;;;5014298;28;20227;-74
2023/04/19 09:48:08;;;;;;;10.20;9.10;;;;;;;;;;5014068;28;20569;-74
2023/04/19 09:50:35;;;;;;;12.07;9.20;;;;;;;;;;5005750;28;20278;-74
2023/04/19 09:53:01;;;;;;;10.77;8.60;;;;;;;;;;5014121;28;20268;-74
2023/04/19 09:55:28;;;;;;;12.77;9.33;;;;;;;;;;5014606;28;20298;-74
2023/04/19 09:57:54;;;;;;;12.70;9.70;;;;;;;;;;5012998;28;20179;-74
2023/04/19 10:00:20;;;;;;;10.00;8.33;;;;;;;;;;5013429;28;20210;-74
2023/04/19 10:02:53;;;;;;;12.00;8.40;;;;;;;;;;4996424;28;20215;-74
2023/04/19 10:05:21;;;;;;;10.30;8.50;;;;;;;;;;5014244;28;20281;-74
2023/04/19 10:07:48;;;;;;;10.60;8.47;;;;;;;;;;5013702;28;20194;-74
2023/04/19 10:10:16;;;;;;;9.03;7.47;;;;;;;;;;5012799;28;20210;-74
2023/04/19 10:12:44;;;;;;;9.40;7.67;;;;;;;;;;5013808;28;20182;-74
2023/04/19 10:15:11;;;;;;;8.20;7.40;;;;;;;;;;5013143;28;20227;-74
2023/04/19 10:17:37;;;;;;;8.63;7.47;;;;;;;;;;5012862;28;20180;-74
2023/04/19 10:20:06;;;;;;;10.73;8.13;;;;;;;;;;5010926;28;20207;-74
2023/04/19 10:22:36;;;;;;;9.03;7.50;;;;;;;;;;4992433;28;20625;-74
2023/04/19 10:25:09;;;;;;;9.20;7.37;;;;;;;;;;5011021;28;20594;-74
2023/04/19 10:27:35;;;;;;;8.50;6.73;;;;;;;;;;5018276;28;20233;-74
2023/04/19 10:30:05;;;;;;;7.47;6.67;;;;;;;;;;5017312;28;20179;-74
2023/04/19 10:32:42;;;;;;;8.23;6.60;;;;;;;;;;5015447;28;20183;-74
2023/04/19 10:35:09;;;;;;;8.87;6.87;;;;;;;;;;5013239;28;20223;-74
2023/04/19 10:37:38;;;;;;;7.77;6.27;;;;;;;;;;5013403;28;20272;-74
2023/04/19 10:40:06;;;;;;;8.97;6.80;;;;;;;;;;5012034;28;20214;-74
2023/04/19 10:42:51;;;;;;;13.57;9.77;;;;;;;;;;5012140;28;20256;-74
2023/04/19 10:45:36;;;;;;;8.23;5.80;;;;;;;;;;5013474;28;20199;-74
2023/04/19 10:48:03;;;;;;;7.93;6.17;;;;;;;;;;5012374;28;20238;-74
2023/04/19 10:50:29;;;;;;;6.87;5.73;;;;;;;;;;5006437;28;20195;-74
2023/04/19 10:52:55;;;;;;;6.23;5.63;;;;;;;;;;5007724;28;20601;-74
2023/04/19 10:55:22;;;;;;;6.97;5.70;;;;;;;;;;5012484;28;20238;-74
2023/04/19 10:58:06;;;;;;;6.10;5.30;;;;;;;;;;5013331;28;20229;-75
2023/04/19 11:00:34;;;;;;;7.53;5.37;;;;;;;;;;5013004;28;20480;-74
2023/04/19 11:03:20;;;;;;;6.67;5.47;;;;;;;;;;5012957;28;20253;-75
2023/04/19 11:06:05;;;;;;;6.30;5.10;;;;;;;;;;5011038;28;20259;-75
2023/04/19 11:08:32;;;;;;;5.50;4.90;;;;;;;;;;5005402;28;20196;-74
2023/04/19 11:10:59;;;;;;;8.50;4.90;;;;;;;;;;5012823;28;20270;-75
2023/04/19 11:13:25;;;;;;;6.43;4.90;;;;;;;;;;5011229;28;20175;-74
2023/04/19 11:15:51;;;;;;;6.60;5.20;;;;;;;;;;4994986;28;20542;-74
2023/04/19 11:18:20;;;;;;;6.07;4.13;;;;;;;;;;5011534;28;20176;-74
2023/04/19 11:20:53;;;;;;;6.53;4.00;;;;;;;;;;5011533;28;20187;-75
2023/04/19 11:23:19;;;;;;;5.60;4.30;;;;;;;;;;5011445;28;20182;-74
2023/04/19 11:25:47;;;;;;;5.93;4.30;;;;;;;;;;5011978;28;20199;-74
2023/04/19 11:28:16;;;;;;;4.50;4.10;;;;;;;;;;5012665;28;20601;-74
2023/04/19 11:30:42;;;;;;;6.23;4.17;;;;;;;;;;5012945;28;20258;-74
2023/04/19 11:33:11;;;;;;;4.70;3.93;;;;;;;;;;5012413;28;20188;-74
2023/04/19 11:35:38;;;;;;;4.00;3.60;;;;;;;;;;5011199;28;20674;-74
2023/04/19 11:38:04;;;;;;;4.63;4.23;;;;;;;;;;5010311;28;20187;-75
2023/04/19 11:40:31;;;;;;;4.77;4.07;;;;;;;;;;5010991;28;20214;-75
2023/04/19 11:43:02;;;;;;;4.47;4.03;;;;;;;;;;5012063;28;20179;-75
2023/04/19 11:45:29;;;;;;;7.20;3.80;;;;;;;;;;5011238;28;20195;-75
2023/04/19 11:47:56;;;;;;;3.90;3.50;;;;;;;;;;5010299;28;20314;-76
2023/04/19 11:50:38;;;;;;;4.00;3.60;;;;;;;;;;5010391;28;20184;-75
2023/04/19 11:53:12;;;;;;;4.80;3.87;;;;;;;;;;5006913;28;20219;-75
2023/04/19 11:55:38;;;;;;;3.83;3.40;;;;;;;;;;5012147;28;20662;-75
2023/04/19 11:58:08;;;;;;;4.10;3.70;;;;;;;;;;5012284;28;20233;-75
2023/04/19 12:00:35;;;;;;;5.87;3.77;;;;;;;;;;5010688;28;20639;-75
2023/04/19 12:03:01;;;;;;;4.97;3.80;;;;;;;;;;5011800;28;20270;-75
2023/04/19 12:05:27;;;;;;;4.83;4.07;;;;;;;;;;5004193;28;20195;-75
2023/04/19 12:08:10;;;;;;;4.10;3.70;;;;;;;;;;5010848;28;20195;-75
2023/04/19 12:10:36;;;;;;;5.83;5.23;;;;;;;;;;5008587;28;20195;-75
2023/04/19 12:13:18;;;;;;;8.00;3.90;;;;;;;;;;5010449;28;20241;-75
2023/04/19 12:15:45;;;;;;;4.67;4.10;;;;;;;;;;5011733;28;20256;-76
2023/04/19 12:18:11;;;;;;;4.27;3.87;;;;;;;;;;5010894;28;20193;-75
2023/04/19 12:20:38;;;;;;;4.90;4.00;;;;;;;;;;5011721;28;20207;-75
2023/04/19 12:23:05;;;;;;;5.10;3.97;;;;;;;;;;5011474;28;20182;-76
2023/04/19 12:25:33;;;;;;;4.73;3.90;;;;;;;;;;5006585;28;20210;-75
2023/04/19 12:27:59;;;;;;;3.73;3.27;;;;;;;;;;5008860;28;20183;-75
2023/04/19 12:30:26;;;;;;;3.90;3.50;;;;;;;;;;5011816;28;20179;-75
2023/04/19 12:32:54;;;;;;;4.00;3.60;;;;;;;;;;5011413;28;20190;-75
2023/04/19 12:35:26;;;;;;;5.30;4.13;;;;;;;;;;5005568;28;20237;-75
2023/04/19 12:37:53;;;;;;;4.63;3.67;;;;;;;;;;5011750;28;20281;-76
2023/04/19 12:40:20;;;;;;;3.90;3.50;;;;;;;;;;5011713;28;20343;-75
2023/04/19 12:42:46;;;;;;;5.30;3.80;;;;;;;;;;5011379;28;20186;-75
2023/04/19 12:45:13;;;;;;;4.07;3.60;;;;;;;;;;5011649;28;20210;-75
2023/04/19 12:47:39;;;;;;;5.67;3.63;;;;;;;;;;5010723;28;20260;-76
2023/04/19 12:50:06;;;;;;;3.70;3.40;;;;;;;;;;5007590;28;20205;-76
2023/04/19 12:52:32;;;;;;;5.10;3.80;;;;;;;;;;5010848;28;20233;-76
2023/04/19 12:54:59;;;;;;;5.67;3.80;;;;;;;;;;5010268;28;20207;-76
2023/04/19 12:57:25;;;;;;;4.27;3.87;;;;;;;;;;5011584;28;20175;-75
2023/04/19 12:59:51;;;;;;;3.87;3.40;;;;;;;;;;4996673;28;20210;-75
2023/04/19 13:02:17;;;;;;;5.07;3.70;;;;;;;;;;5013822;28;20633;-76
2023/04/19 13:04:43;;;;;;;4.30;3.80;;;;;;;;;;5015688;28;20206;-76
2023/04/19 13:07:09;;;;;;;3.80;3.50;;;;;;;;;;5014787;28;20218;-76
2023/04/19 13:09:36;;;;;;;5.17;3.70;;;;;;;;;;5015953;28;20183;-76
2023/04/19 13:12:02;;;;;;;5.50;3.70;;;;;;;;;;5015132;28;20186;-75
2023/04/19 13:14:28;;;;;;;4.17;3.43;;;;;;;;;;5015136;28;20194;-75
2023/04/19 13:16:54;;;;;;;4.00;3.60;;;;;;;;;;5014892;28;20689;-76
2023/04/19 13:19:20;;;;;;;4.97;4.03;;;;;;;;;;5014891;28;20214;-75
2023/04/19 13:21:47;;;;;;;4.37;3.97;;;;;;;;;;5015348;28;20518;-75
2023/04/19 13:24:13;;;;;;;7.73;3.47;;;;;;;;;;5013523;28;20221;-76
2023/04/19 13:26:39;;;;;;;6.30;3.67;;;;;;;;;;4997893;28;20187;-75
2023/04/19 13:29:08;;;;;;;6.33;3.70;;;;;;;;;;5015174;28;20180;-76
2023/04/19 13:31:34;;;;;;;4.27;3.27;;;;;;;;;;5013509;28;20552;-76
2023/04/19 13:34:01;;;;;;;5.80;3.80;;;;;;;;;;5014351;28;20264;-76
2023/04/19 13:36:27;;;;;;;4.20;3.63;;;;;;;;;;5015004;28;20194;-75
2023/04/19 13:38:53;;;;;;;5.10;3.27;;;;;;;;;;4997025;28;20212;-75
2023/04/19 13:41:20;;;;;;;4.27;3.50;;;;;;;;;;5012474;28;20188;-75
2023/04/19 13:43:46;;;;;;;4.07;3.00;;;;;;;;;;5014270;28;20219;-75
2023/04/19 13:46:12;;;;;;;4.23;2.80;;;;;;;;;;5013420;28;20199;-75
2023/04/19 13:48:38;;;;;;;3.50;3.00;;;;;;;;;;5014480;28;20269;-75
2023/04/19 13:51:05;;;;;;;3.63;2.60;;;;;;;;;;5013188;28;20214;-76
2023/04/19 13:53:31;;;;;;;3.43;2.60;;;;;;;;;;5014177;28;20245;-76
2023/04/19 13:55:58;;;;;;;5.07;2.60;;;;;;;;;;5010467;28;20208;-75
2023/04/19 13:58:24;;;;;;;3.27;2.67;;;;;;;;;;5010703;28;20257;-75
2023/04/19 14:00:51;;;;;;;3.90;3.10;;;;;;;;;;5014550;28;20179;-75
2023/04/19 14:03:17;;;;;;;5.57;3.07;;;;;;;;;;4994876;28;20187;-75
2023/04/19 14:05:43;;;;;;;3.80;2.90;;;;;;;;;;5012926;28;20195;-76
2023/04/19 14:08:09;;;;;;;6.10;2.80;;;;;;;;;;5009607;28;20180;-75
2023/04/19 14:10:35;;;;;;;3.87;2.50;;;;;;;;;;5022392;28;20190;-76
2023/04/19 14:13:02;;;;;;;4.77;2.70;;;;;;;;;;5013239;28;20558;-75
2023/04/19 14:15:28;;;;;;;3.03;2.50;;;;;;;;;;5009987;28;20206;-76
2023/04/19 14:17:54;;;;;;;3.50;2.40;;;;;;;;;;4994719;28;20191;-76
2023/04/19 14:20:20;;;;;;;3.33;2.20;;;;;;;;;;5006080;28;20350;-75
2023/04/19 14:22:47;;;;;;;7.00;2.33;;;;;;;;;;5002556;28;20706;-76
2023/04/19 14:25:17;;;;;;;2.97;2.57;;;;;;;;;;5005666;28;20617;-76
2023/04/19 14:27:44;;;;;;;3.50;2.40;;;;;;;;;;5006292;28;20393;-76
2023/04/19 14:30:10;;;;;;;3.77;2.30;;;;;;;;;;5000030;28;20180;-75
2023/04/19 14:32:36;;;;;;;2.80;2.53;;;;;;;;;;4992768;28;20204;-76
2023/04/19 14:35:03;;;;;;;2.80;2.40;;;;;;;;;;5006193;28;20223;-76
2023/04/19 14:37:29;;;;;;;2.53;2.20;;;;;;;;;;4998679;28;20192;-76
2023/04/19 14:39:55;;;;;;;3.67;2.10;;;;;;;;;;4998279;28;20213;-76
2023/04/19 14:42:21;;;;;;;7.37;3.70;;;;;;;;;;4994276;28;20183;-76